sensor_id;sensor_type;location;lat;lon;timestamp;pressure;altitude;pressure_sealevel;temperature;humidity
50484;BME280;36409;52.168;20.878;2023-08-06T00:02:10;99391.87;;;18.77;79.62
50484;BME280;36409;52.168;20.878;2023-08-06T00:04:39;99395.27;;;18.79;79.31
50484;BME280;36409;52.168;20.878;2023-08-06T00:07:08;99414.52;;;18.81;79.08
50484;BME280;36409;52.168;20.878;2023-08-06T00:09:37;99403.95;;;18.81;79.51
50484;BME280;36409;52.168;20.878;2023-08-06T00:12:07;99397.80;;;18.81;79.59
50484;BME280;36409;52.168;20.878;2023-08-06T00:14:36;99395.16;;;18.81;79.71
50484;BME280;36409;52.168;20.878;2023-08-06T00:17:05;99394.43;;;18.79;79.19
50484;BME280;36409;52.168;20.878;2023-08-06T00:19:34;99380.46;;;18.77;79.66
50484;BME280;36409;52.168;20.878;2023-08-06T00:22:03;99373.47;;;18.76;79.26
50484;BME280;36409;52.168;20.878;2023-08-06T00:24:32;99369.32;;;18.72;79.32
50484;BME280;36409;52.168;20.878;2023-08-06T00:27:02;99375.55;;;18.71;79.38
50484;BME280;36409;52.168;20.878;2023-08-06T00:29:30;99370.38;;;18.69;79.60
50484;BME280;36409;52.168;20.878;2023-08-06T00:31:59;99350.28;;;18.66;79.78
50484;BME280;36409;52.168;20.878;2023-08-06T00:34:28;99340.66;;;18.65;79.67
50484;BME280;36409;52.168;20.878;2023-08-06T00:36:57;99331.22;;;18.61;79.74
50484;BME280;36409;52.168;20.878;2023-08-06T00:39:27;99330.58;;;18.58;79.45
50484;BME280;36409;52.168;20.878;2023-08-06T00:41:56;99323.70;;;18.55;79.65
50484;BME280;36409;52.168;20.878;2023-08-06T00:44:26;99330.87;;;18.53;79.83
50484;BME280;36409;52.168;20.878;2023-08-06T00:46:55;99320.49;;;18.50;79.58
50484;BME280;36409;52.168;20.878;2023-08-06T00:49:25;99311.73;;;18.49;79.74
50484;BME280;36409;52.168;20.878;2023-08-06T00:51:54;99291.62;;;18.47;80.11
50484;BME280;36409;52.168;20.878;2023-08-06T00:54:26;99282.03;;;18.46;79.94
50484;BME280;36409;52.168;20.878;2023-08-06T00:56:57;99265.42;;;18.44;79.85
50484;BME280;36409;52.168;20.878;2023-08-06T00:59:26;99260.22;;;18.42;80.03
50484;BME280;36409;52.168;20.878;2023-08-06T01:01:55;99262.86;;;18.42;80.23
50484;BME280;36409;52.168;20.878;2023-08-06T01:04:25;99249.01;;;18.39;79.84
50484;BME280;36409;52.168;20.878;2023-08-06T01:07:03;99239.38;;;18.37;80.39
50484;BME280;36409;52.168;20.878;2023-08-06T01:09:43;99236.74;;;18.37;80.07
50484;BME280;36409;52.168;20.878;2023-08-06T01:12:25;99223.65;;;18.36;80.23
50484;BME280;36409;52.168;20.878;2023-08-06T01:15:11;99219.42;;;18.33;80.42
50484;BME280;36409;52.168;20.878;2023-08-06T01:17:45;99198.38;;;18.32;80.16
50484;BME280;36409;52.168;20.878;2023-08-06T01:20:14;99182.52;;;18.32;80.09
50484;BME280;36409;52.168;20.878;2023-08-06T01:22:43;99155.36;;;18.30;80.67
50484;BME280;36409;52.168;20.878;2023-08-06T01:25:15;99150.08;;;18.30;80.39
50484;BME280;36409;52.168;20.878;2023-08-06T01:27:48;99141.44;;;18.28;80.14
50484;BME280;36409;52.168;20.878;2023-08-06T01:30:20;99133.52;;;18.28;80.66
50484;BME280;36409;52.168;20.878;2023-08-06T01:32:59;99139.74;;;18.27;80.65
50484;BME280;36409;52.168;20.878;2023-08-06T01:35:29;99123.89;;;18.27;80.75
50484;BME280;36409;52.168;20.878;2023-08-06T01:38:00;99122.09;;;18.27;80.61
50484;BME280;36409;52.168;20.878;2023-08-06T01:40:31;99106.16;;;18.29;80.89
50484;BME280;36409;52.168;20.878;2023-08-06T01:43:00;99108.69;;;18.30;80.68
50484;BME280;36409;52.168;20.878;2023-08-06T01:45:29;99111.22;;;18.32;80.56
50484;BME280;36409;52.168;20.878;2023-08-06T01:47:58;99104.99;;;18.33;80.92
50484;BME280;36409;52.168;20.878;2023-08-06T01:50:27;99111.14;;;18.33;80.76
50484;BME280;36409;52.168;20.878;2023-08-06T01:52:56;99105.74;;;18.35;80.72
50484;BME280;36409;52.168;20.878;2023-08-06T01:55:24;99104.80;;;18.36;80.90
50484;BME280;36409;52.168;20.878;2023-08-06T01:57:53;99102.91;;;18.38;80.74
50484;BME280;36409;52.168;20.878;2023-08-06T02:00:22;99093.17;;;18.39;80.65
50484;BME280;36409;52.168;20.878;2023-08-06T02:02:52;99086.11;;;18.39;80.91
50484;BME280;36409;52.168;20.878;2023-08-06T02:05:21;99095.81;;;18.39;81.11
50484;BME280;36409;52.168;20.878;2023-08-06T02:07:50;99094.86;;;18.40;80.90
50484;BME280;36409;52.168;20.878;2023-08-06T02:10:18;99085.25;;;18.39;81.18
50484;BME280;36409;52.168;20.878;2023-08-06T02:12:50;99077.23;;;18.40;81.03
50484;BME280;36409;52.168;20.878;2023-08-06T02:15:18;99068.34;;;18.41;80.86
50484;BME280;36409;52.168;20.878;2023-08-06T02:17:48;99070.14;;;18.41;81.18
50484;BME280;36409;52.168;20.878;2023-08-06T02:20:17;99063.05;;;18.41;80.94
50484;BME280;36409;52.168;20.878;2023-08-06T02:22:45;99063.05;;;18.41;80.95
50484;BME280;36409;52.168;20.878;2023-08-06T02:25:16;99060.41;;;18.41;81.42
50484;BME280;36409;52.168;20.878;2023-08-06T02:27:45;99064.75;;;18.42;81.32
50484;BME280;36409;52.168;20.878;2023-08-06T02:30:16;99074.48;;;18.42;81.42
50484;BME280;36409;52.168;20.878;2023-08-06T02:32:44;99080.52;;;18.44;81.28
50484;BME280;36409;52.168;20.878;2023-08-06T02:35:15;99067.31;;;18.44;81.43
50484;BME280;36409;52.168;20.878;2023-08-06T02:37:44;99067.08;;;18.47;81.14
50484;BME280;36409;52.168;20.878;2023-08-06T02:40:12;99067.94;;;18.47;81.47
50484;BME280;36409;52.168;20.878;2023-08-06T02:42:41;99068.69;;;18.49;81.60
50484;BME280;36409;52.168;20.878;2023-08-06T02:45:10;99069.44;;;18.51;81.43
50484;BME280;36409;52.168;20.878;2023-08-06T02:47:39;99057.89;;;18.52;81.37
50484;BME280;36409;52.168;20.878;2023-08-06T02:50:09;99054.22;;;18.55;81.38
50484;BME280;36409;52.168;20.878;2023-08-06T02:52:38;99040.06;;;18.56;81.69
50484;BME280;36409;52.168;20.878;2023-08-06T02:55:09;99033.83;;;18.57;81.42
50484;BME280;36409;52.168;20.878;2023-08-06T02:57:41;99028.42;;;18.59;81.45
50484;BME280;36409;52.168;20.878;2023-08-06T03:00:11;99026.62;;;18.59;81.39
50484;BME280;36409;52.168;20.878;2023-08-06T03:02:40;99016.05;;;18.59;81.45
50484;BME280;36409;52.168;20.878;2023-08-06T03:05:38;99017.86;;;18.59;81.55
50484;BME280;36409;52.168;20.878;2023-08-06T03:08:07;99017.66;;;18.62;81.34
50484;BME280;36409;52.168;20.878;2023-08-06T03:10:36;99014.89;;;18.63;81.50
50484;BME280;36409;52.168;20.878;2023-08-06T03:13:05;98996.41;;;18.63;81.55
50484;BME280;36409;52.168;20.878;2023-08-06T03:15:34;98996.41;;;18.63;81.40
50484;BME280;36409;52.168;20.878;2023-08-06T03:18:03;98988.47;;;18.63;81.35
50484;BME280;36409;52.168;20.878;2023-08-06T03:20:34;98983.94;;;18.65;81.35
50484;BME280;36409;52.168;20.878;2023-08-06T03:23:03;98969.77;;;18.66;81.62
50484;BME280;36409;52.168;20.878;2023-08-06T03:25:35;98967.96;;;18.67;81.57
50484;BME280;36409;52.168;20.878;2023-08-06T03:28:05;98959.09;;;18.68;81.82
50484;BME280;36409;52.168;20.878;2023-08-06T03:30:35;98955.38;;;18.71;81.56
50484;BME280;36409;52.168;20.878;2023-08-06T03:33:05;98945.66;;;18.71;81.98
50484;BME280;36409;52.168;20.878;2023-08-06T03:35:34;98940.27;;;18.73;81.47
50484;BME280;36409;52.168;20.878;2023-08-06T03:38:03;98941.13;;;18.73;81.79
50484;BME280;36409;52.168;20.878;2023-08-06T03:40:35;98933.08;;;18.75;81.94
50484;BME280;36409;52.168;20.878;2023-08-06T03:43:04;98921.55;;;18.76;81.60
50484;BME280;36409;52.168;20.878;2023-08-06T03:45:33;98905.70;;;18.76;81.90
50484;BME280;36409;52.168;20.878;2023-08-06T03:48:03;98906.44;;;18.78;81.72
50484;BME280;36409;52.168;20.878;2023-08-06T03:50:33;98904.63;;;18.78;82.00
50484;BME280;36409;52.168;20.878;2023-08-06T03:53:02;98897.44;;;18.80;82.05
50484;BME280;36409;52.168;20.878;2023-08-06T03:55:31;98896.36;;;18.83;82.07
50484;BME280;36409;52.168;20.878;2023-08-06T03:58:00;98892.67;;;18.86;82.09
50484;BME280;36409;52.168;20.878;2023-08-06T04:00:29;98881.03;;;18.88;81.78
50484;BME280;36409;52.168;20.878;2023-08-06T04:02:58;98878.27;;;18.90;82.06
50484;BME280;36409;52.168;20.878;2023-08-06T04:05:31;98871.91;;;18.92;82.14
50484;BME280;36409;52.168;20.878;2023-08-06T04:08:00;98865.70;;;18.93;82.21
50484;BME280;36409;52.168;20.878;2023-08-06T04:10:29;98867.30;;;18.96;81.99
50484;BME280;36409;52.168;20.878;2023-08-06T04:12:58;98861.89;;;18.97;81.82
50484;BME280;36409;52.168;20.878;2023-08-06T04:15:27;98852.78;;;19.02;82.03
50484;BME280;36409;52.168;20.878;2023-08-06T04:17:56;98852.54;;;19.05;82.46
50484;BME280;36409;52.168;20.878;2023-08-06T04:20:26;98846.20;;;19.07;81.89
50484;BME280;36409;52.168;20.878;2023-08-06T04:22:55;98841.53;;;19.11;81.84
50484;BME280;36409;52.168;20.878;2023-08-06T04:25:24;98838.76;;;19.12;82.18
50484;BME280;36409;52.168;20.878;2023-08-06T04:27:53;98842.02;;;19.16;82.24
50484;BME280;36409;52.168;20.878;2023-08-06T04:30:23;98829.52;;;19.18;81.94
50484;BME280;36409;52.168;20.878;2023-08-06T04:32:52;98832.05;;;19.20;82.24
50484;BME280;36409;52.168;20.878;2023-08-06T04:35:22;98829.18;;;19.23;82.29
50484;BME280;36409;52.168;20.878;2023-08-06T04:37:51;98828.83;;;19.27;82.42
50484;BME280;36409;52.168;20.878;2023-08-06T04:40:21;98821.41;;;19.33;82.38
50484;BME280;36409;52.168;20.878;2023-08-06T04:42:50;98823.58;;;19.39;82.30
50484;BME280;36409;52.168;20.878;2023-08-06T04:45:19;98816.03;;;19.45;82.36
50484;BME280;36409;52.168;20.878;2023-08-06T04:47:48;98816.41;;;19.52;82.22
50484;BME280;36409;52.168;20.878;2023-08-06T04:50:17;98814.14;;;19.59;82.33
50484;BME280;36409;52.168;20.878;2023-08-06T04:52:46;98812.83;;;19.65;82.26
50484;BME280;36409;52.168;20.878;2023-08-06T04:55:16;98811.28;;;19.73;82.30
50484;BME280;36409;52.168;20.878;2023-08-06T04:57:45;98809.84;;;19.81;81.98
50484;BME280;36409;52.168;20.878;2023-08-06T05:00:17;98803.86;;;19.90;81.81
50484;BME280;36409;52.168;20.878;2023-08-06T05:02:46;98812.41;;;20.05;82.09
50484;BME280;36409;52.168;20.878;2023-08-06T05:05:17;98802.44;;;20.20;81.50
50484;BME280;36409;52.168;20.878;2023-08-06T05:07:49;98790.97;;;20.31;81.64
50484;BME280;36409;52.168;20.878;2023-08-06T05:10:19;98799.47;;;20.57;81.28
50484;BME280;36409;52.168;20.878;2023-08-06T05:12:49;98785.23;;;20.70;81.18
50484;BME280;36409;52.168;20.878;2023-08-06T05:15:18;98774.41;;;21.26;80.97
50484;BME280;36409;52.168;20.878;2023-08-06T05:17:48;98773.84;;;21.44;80.88
50484;BME280;36409;52.168;20.878;2023-08-06T05:20:17;98771.82;;;21.79;80.60
50484;BME280;36409;52.168;20.878;2023-08-06T05:22:47;98774.55;;;22.39;80.11
50484;BME280;36409;52.168;20.878;2023-08-06T05:25:16;98773.67;;;22.79;79.75
50484;BME280;36409;52.168;20.878;2023-08-06T05:27:45;98757.77;;;23.66;78.82
50484;BME280;36409;52.168;20.878;2023-08-06T05:30:15;98758.23;;;24.73;76.84
50484;BME280;36409;52.168;20.878;2023-08-06T05:32:44;98748.90;;;25.58;76.41
50484;BME280;36409;52.168;20.878;2023-08-06T05:35:13;98751.80;;;25.99;76.42
50484;BME280;36409;52.168;20.878;2023-08-06T05:37:42;98748.72;;;26.20;76.15
50484;BME280;36409;52.168;20.878;2023-08-06T05:40:11;98744.52;;;26.10;76.19
50484;BME280;36409;52.168;20.878;2023-08-06T05:42:41;98745.75;;;25.89;75.08
50484;BME280;36409;52.168;20.878;2023-08-06T05:45:11;98737.78;;;26.05;74.29
50484;BME280;36409;52.168;20.878;2023-08-06T05:47:40;98733.11;;;26.59;73.50
50484;BME280;36409;52.168;20.878;2023-08-06T05:50:09;98730.89;;;27.70;71.95
50484;BME280;36409;52.168;20.878;2023-08-06T05:52:38;98716.34;;;28.44;70.93
50484;BME280;36409;52.168;20.878;2023-08-06T05:55:09;98718.51;;;28.95;70.11
50484;BME280;36409;52.168;20.878;2023-08-06T05:57:37;98712.91;;;29.58;69.36
50484;BME280;36409;52.168;20.878;2023-08-06T06:00:08;98715.95;;;29.55;69.31
50484;BME280;36409;52.168;20.878;2023-08-06T06:02:41;98715.39;;;29.06;69.95
50484;BME280;36409;52.168;20.878;2023-08-06T06:05:10;98715.98;;;28.78;69.18
50484;BME280;36409;52.168;20.878;2023-08-06T06:07:39;98715.79;;;28.25;69.56
50484;BME280;36409;52.168;20.878;2023-08-06T06:10:09;98713.14;;;27.77;68.91
50484;BME280;36409;52.168;20.878;2023-08-06T06:12:40;98706.02;;;27.36;68.82
50484;BME280;36409;52.168;20.878;2023-08-06T06:15:10;98702.39;;;27.04;69.04
50484;BME280;36409;52.168;20.878;2023-08-06T06:17:39;98710.24;;;26.81;68.62
50484;BME280;36409;52.168;20.878;2023-08-06T06:20:10;98701.69;;;26.61;68.59
50484;BME280;36409;52.168;20.878;2023-08-06T06:22:39;98699.48;;;26.40;68.79
50484;BME280;36409;52.168;20.878;2023-08-06T06:25:09;98691.08;;;26.18;68.82
50484;BME280;36409;52.168;20.878;2023-08-06T06:27:38;98682.81;;;25.95;68.98
50484;BME280;36409;52.168;20.878;2023-08-06T06:30:09;98681.91;;;25.78;68.75
50484;BME280;36409;52.168;20.878;2023-08-06T06:32:40;98678.27;;;25.52;68.59
50484;BME280;36409;52.168;20.878;2023-08-06T06:35:10;98683.33;;;25.37;68.44
50484;BME280;36409;52.168;20.878;2023-08-06T06:37:38;98678.12;;;25.27;68.95
50484;BME280;36409;52.168;20.878;2023-08-06T06:40:09;98672.23;;;25.24;69.01
50484;BME280;36409;52.168;20.878;2023-08-06T06:42:38;98673.61;;;25.28;68.90
50484;BME280;36409;52.168;20.878;2023-08-06T06:45:10;98666.59;;;25.27;68.94
50484;BME280;36409;52.168;20.878;2023-08-06T06:47:39;98671.62;;;25.30;68.93
50484;BME280;36409;52.168;20.878;2023-08-06T06:50:09;98664.61;;;25.29;68.72
50484;BME280;36409;52.168;20.878;2023-08-06T06:52:38;98656.08;;;25.25;68.67
50484;BME280;36409;52.168;20.878;2023-08-06T06:55:07;98659.74;;;25.24;68.80
50484;BME280;36409;52.168;20.878;2023-08-06T06:57:37;98658.06;;;25.23;68.71
50484;BME280;36409;52.168;20.878;2023-08-06T07:00:07;98650.74;;;25.25;68.81
50484;BME280;36409;52.168;20.878;2023-08-06T07:02:38;98658.41;;;25.28;68.67
50484;BME280;36409;52.168;20.878;2023-08-06T07:05:08;98664.30;;;25.32;68.50
50484;BME280;36409;52.168;20.878;2023-08-06T07:07:37;98668.48;;;25.35;68.40
50484;BME280;36409;52.168;20.878;2023-08-06T07:10:08;98659.30;;;25.37;68.17
50484;BME280;36409;52.168;20.878;2023-08-06T07:12:37;98659.46;;;25.62;68.03
50484;BME280;36409;52.168;20.878;2023-08-06T07:15:07;98665.34;;;25.74;68.26
50484;BME280;36409;52.168;20.878;2023-08-06T07:17:36;98660.83;;;25.66;67.91
50484;BME280;36409;52.168;20.878;2023-08-06T07:20:07;98663.16;;;25.69;67.35
50484;BME280;36409;52.168;20.878;2023-08-06T07:22:37;98667.07;;;25.83;67.12
50484;BME280;36409;52.168;20.878;2023-08-06T07:25:06;98660.19;;;25.81;67.43
50484;BME280;36409;52.168;20.878;2023-08-06T07:27:36;98649.48;;;25.72;67.31
50484;BME280;36409;52.168;20.878;2023-08-06T07:30:06;98649.66;;;25.71;67.42
50484;BME280;36409;52.168;20.878;2023-08-06T07:32:35;98644.74;;;26.09;66.99
50484;BME280;36409;52.168;20.878;2023-08-06T07:35:06;98644.33;;;26.72;66.53
50484;BME280;36409;52.168;20.878;2023-08-06T07:37:36;98643.00;;;26.76;66.30
50484;BME280;36409;52.168;20.878;2023-08-06T07:40:06;98652.85;;;26.75;66.08
50484;BME280;36409;52.168;20.878;2023-08-06T07:42:36;98657.73;;;26.80;65.58
50484;BME280;36409;52.168;20.878;2023-08-06T07:45:07;98643.02;;;26.84;65.61
50484;BME280;36409;52.168;20.878;2023-08-06T07:47:36;98641.52;;;26.81;65.56
50484;BME280;36409;52.168;20.878;2023-08-06T07:50:06;98655.40;;;26.85;65.47
50484;BME280;36409;52.168;20.878;2023-08-06T07:52:37;98653.03;;;26.74;65.39
50484;BME280;36409;52.168;20.878;2023-08-06T07:55:07;98652.03;;;26.75;65.02
50484;BME280;36409;52.168;20.878;2023-08-06T07:57:36;98651.05;;;26.84;65.29
50484;BME280;36409;52.168;20.878;2023-08-06T08:00:08;98650.88;;;26.94;65.35
50484;BME280;36409;52.168;20.878;2023-08-06T08:02:41;98644.02;;;27.00;65.15
50484;BME280;36409;52.168;20.878;2023-08-06T08:05:10;98636.30;;;27.13;65.19
50484;BME280;36409;52.168;20.878;2023-08-06T08:07:39;98628.87;;;27.32;65.05
50484;BME280;36409;52.168;20.878;2023-08-06T08:10:09;98624.15;;;27.50;64.77
50484;BME280;36409;52.168;20.878;2023-08-06T08:12:38;98627.11;;;27.64;64.48
50484;BME280;36409;52.168;20.878;2023-08-06T08:15:08;98623.42;;;27.65;64.35
50484;BME280;36409;52.168;20.878;2023-08-06T08:17:37;98628.73;;;27.73;64.14
50484;BME280;36409;52.168;20.878;2023-08-06T08:20:08;98620.02;;;27.79;63.94
50484;BME280;36409;52.168;20.878;2023-08-06T08:22:37;98622.19;;;27.75;63.63
50484;BME280;36409;52.168;20.878;2023-08-06T08:25:07;98616.80;;;27.84;63.62
50484;BME280;36409;52.168;20.878;2023-08-06T08:27:36;98609.13;;;28.04;63.59
50484;BME280;36409;52.168;20.878;2023-08-06T08:30:07;98610.80;;;28.13;63.41
50484;BME280;36409;52.168;20.878;2023-08-06T08:32:36;98618.91;;;28.28;63.26
50484;BME280;36409;52.168;20.878;2023-08-06T08:35:06;98610.72;;;28.45;62.87
50484;BME280;36409;52.168;20.878;2023-08-06T08:37:35;98612.14;;;28.56;62.76
50484;BME280;36409;52.168;20.878;2023-08-06T08:40:07;98619.41;;;28.70;62.69
50484;BME280;36409;52.168;20.878;2023-08-06T08:42:37;98607.61;;;28.79;62.70
50484;BME280;36409;52.168;20.878;2023-08-06T08:45:09;98604.94;;;28.94;62.54
50484;BME280;36409;52.168;20.878;2023-08-06T08:47:42;98605.30;;;29.06;62.30
50484;BME280;36409;52.168;20.878;2023-08-06T08:50:11;98611.69;;;29.05;61.80
50484;BME280;36409;52.168;20.878;2023-08-06T08:52:43;98596.80;;;29.03;61.60
50484;BME280;36409;52.168;20.878;2023-08-06T08:55:15;98592.27;;;29.03;61.65
50484;BME280;36409;52.168;20.878;2023-08-06T08:57:44;98591.16;;;29.12;61.47
50484;BME280;36409;52.168;20.878;2023-08-06T09:00:13;98587.72;;;29.19;61.11
50484;BME280;36409;52.168;20.878;2023-08-06T09:02:43;98584.77;;;29.28;61.09
50484;BME280;36409;52.168;20.878;2023-08-06T09:05:16;98581.97;;;29.52;61.06
50484;BME280;36409;52.168;20.878;2023-08-06T09:07:49;98581.45;;;29.78;60.97
50484;BME280;36409;52.168;20.878;2023-08-06T09:10:20;98576.02;;;30.08;60.56
50484;BME280;36409;52.168;20.878;2023-08-06T09:12:52;98569.23;;;30.34;60.49
50484;BME280;36409;52.168;20.878;2023-08-06T09:15:24;98560.31;;;30.55;60.33
50484;BME280;36409;52.168;20.878;2023-08-06T09:17:54;98561.44;;;30.68;59.80
50484;BME280;36409;52.168;20.878;2023-08-06T09:20:23;98554.93;;;30.55;59.03
50484;BME280;36409;52.168;20.878;2023-08-06T09:22:54;98556.28;;;30.44;58.84
50484;BME280;36409;52.168;20.878;2023-08-06T09:25:24;98556.33;;;30.51;58.90
50484;BME280;36409;52.168;20.878;2023-08-06T09:27:53;98550.12;;;30.79;58.63
50484;BME280;36409;52.168;20.878;2023-08-06T09:30:33;98553.81;;;31.06;58.14
50484;BME280;36409;52.168;20.878;2023-08-06T09:33:02;98548.55;;;30.91;58.16
50484;BME280;36409;52.168;20.878;2023-08-06T09:35:32;98543.14;;;31.20;57.79
50484;BME280;36409;52.168;20.878;2023-08-06T09:38:06;98543.66;;;31.43;57.77
50484;BME280;36409;52.168;20.878;2023-08-06T09:40:36;98550.08;;;31.42;57.46
50484;BME280;36409;52.168;20.878;2023-08-06T09:43:05;98544.20;;;31.25;56.96
50484;BME280;36409;52.168;20.878;2023-08-06T09:45:35;98549.80;;;31.24;57.05
50484;BME280;36409;52.168;20.878;2023-08-06T09:48:05;98546.30;;;31.30;56.48
50484;BME280;36409;52.168;20.878;2023-08-06T09:50:36;98543.74;;;31.15;56.41
50484;BME280;36409;52.168;20.878;2023-08-06T09:53:07;98538.50;;;31.07;56.12
50484;BME280;36409;52.168;20.878;2023-08-06T09:55:37;98532.05;;;31.01;55.86
50484;BME280;36409;52.168;20.878;2023-08-06T09:58:07;98522.91;;;30.95;55.79
50484;BME280;36409;52.168;20.878;2023-08-06T10:00:36;98515.25;;;30.99;55.52
50484;BME280;36409;52.168;20.878;2023-08-06T10:03:08;98520.14;;;31.17;55.29
50484;BME280;36409;52.168;20.878;2023-08-06T10:05:38;98522.07;;;31.37;55.32
50484;BME280;36409;52.168;20.878;2023-08-06T10:08:08;98517.59;;;31.64;54.91
50484;BME280;36409;52.168;20.878;2023-08-06T10:10:38;98511.98;;;31.66;54.68
50484;BME280;36409;52.168;20.878;2023-08-06T10:13:08;98518.48;;;31.78;54.46
50484;BME280;36409;52.168;20.878;2023-08-06T10:15:39;98508.34;;;31.87;53.90
50484;BME280;36409;52.168;20.878;2023-08-06T10:18:08;98518.73;;;31.97;54.08
50484;BME280;36409;52.168;20.878;2023-08-06T10:20:37;98507.31;;;32.22;53.97
50484;BME280;36409;52.168;20.878;2023-08-06T10:23:07;98499.46;;;32.40;53.29
50484;BME280;36409;52.168;20.878;2023-08-06T10:25:40;98497.98;;;32.38;53.04
50484;BME280;36409;52.168;20.878;2023-08-06T10:28:10;98491.55;;;32.12;52.27
50484;BME280;36409;52.168;20.878;2023-08-06T10:30:45;98486.16;;;32.05;52.37
50484;BME280;36409;52.168;20.878;2023-08-06T10:33:15;98488.45;;;32.08;52.08
50484;BME280;36409;52.168;20.878;2023-08-06T10:35:46;98484.50;;;32.17;51.80
50484;BME280;36409;52.168;20.878;2023-08-06T10:38:16;98478.26;;;32.17;51.98
50484;BME280;36409;52.168;20.878;2023-08-06T10:40:52;98471.01;;;32.04;52.38
50484;BME280;36409;52.168;20.878;2023-08-06T10:43:31;98477.84;;;32.07;52.18
50484;BME280;36409;52.168;20.878;2023-08-06T10:46:02;98477.66;;;32.01;51.86
50484;BME280;36409;52.168;20.878;2023-08-06T10:48:35;98476.17;;;31.72;51.47
50484;BME280;36409;52.168;20.878;2023-08-06T10:51:07;98474.81;;;31.34;51.77
50484;BME280;36409;52.168;20.878;2023-08-06T10:53:37;98472.05;;;31.14;51.76
50484;BME280;36409;52.168;20.878;2023-08-06T10:56:13;98476.91;;;30.97;51.88
50484;BME280;36409;52.168;20.878;2023-08-06T10:58:43;98469.41;;;30.86;52.00
50484;BME280;36409;52.168;20.878;2023-08-06T11:01:12;98462.14;;;30.86;51.82
50484;BME280;36409;52.168;20.878;2023-08-06T11:03:44;98454.73;;;30.95;52.49
50484;BME280;36409;52.168;20.878;2023-08-06T11:06:18;98449.87;;;31.12;51.75
50484;BME280;36409;52.168;20.878;2023-08-06T11:08:52;98435.61;;;31.18;52.08
50484;BME280;36409;52.168;20.878;2023-08-06T11:11:23;98447.59;;;31.16;51.95
50484;BME280;36409;52.168;20.878;2023-08-06T11:13:52;98435.85;;;31.37;52.04
50484;BME280;36409;52.168;20.878;2023-08-06T11:16:23;98433.16;;;31.37;52.33
50484;BME280;36409;52.168;20.878;2023-08-06T11:18:52;98434.41;;;31.48;51.90
50484;BME280;36409;52.168;20.878;2023-08-06T11:21:23;98430.95;;;31.81;51.79
50484;BME280;36409;52.168;20.878;2023-08-06T11:23:52;98436.79;;;31.91;51.61
50484;BME280;36409;52.168;20.878;2023-08-06T11:26:21;98427.22;;;32.22;52.03
50484;BME280;36409;52.168;20.878;2023-08-06T11:28:51;98414.10;;;32.59;51.55
50484;BME280;36409;52.168;20.878;2023-08-06T11:31:21;98416.69;;;32.93;50.92
50484;BME280;36409;52.168;20.878;2023-08-06T11:33:51;98418.30;;;33.07;50.25
50484;BME280;36409;52.168;20.878;2023-08-06T11:36:30;98408.85;;;33.23;50.29
50484;BME280;36409;52.168;20.878;2023-08-06T11:38:59;98408.20;;;33.28;49.42
50484;BME280;36409;52.168;20.878;2023-08-06T11:41:29;98405.77;;;33.20;49.58
50484;BME280;36409;52.168;20.878;2023-08-06T11:43:58;98406.48;;;33.02;48.97
50484;BME280;36409;52.168;20.878;2023-08-06T11:46:27;98396.39;;;32.70;49.22
50484;BME280;36409;52.168;20.878;2023-08-06T11:48:58;98393.52;;;32.65;48.71
50484;BME280;36409;52.168;20.878;2023-08-06T11:51:27;98394.54;;;32.71;48.71
50484;BME280;36409;52.168;20.878;2023-08-06T11:53:56;98402.83;;;32.69;48.42
50484;BME280;36409;52.168;20.878;2023-08-06T11:56:26;98390.63;;;32.60;47.83
50484;BME280;36409;52.168;20.878;2023-08-06T11:58:56;98383.59;;;32.45;48.17
50484;BME280;36409;52.168;20.878;2023-08-06T12:01:26;98371.73;;;32.60;48.35
50484;BME280;36409;52.168;20.878;2023-08-06T12:03:59;98366.25;;;32.87;48.28
50484;BME280;36409;52.168;20.878;2023-08-06T12:06:28;98362.22;;;33.03;47.94
50484;BME280;36409;52.168;20.878;2023-08-06T12:08:57;98366.43;;;33.24;47.98
50484;BME280;36409;52.168;20.878;2023-08-06T12:11:26;98374.54;;;33.24;47.28
50484;BME280;36409;52.168;20.878;2023-08-06T12:13:56;98361.17;;;33.04;47.33
50484;BME280;36409;52.168;20.878;2023-08-06T12:16:24;98356.88;;;32.89;47.36
50484;BME280;36409;52.168;20.878;2023-08-06T12:18:54;98357.56;;;32.71;47.56
50484;BME280;36409;52.168;20.878;2023-08-06T12:21:22;98363.42;;;32.55;47.41
50484;BME280;36409;52.168;20.878;2023-08-06T12:23:51;98359.16;;;32.33;47.26
50484;BME280;36409;52.168;20.878;2023-08-06T12:26:20;98362.26;;;32.17;47.29
50484;BME280;36409;52.168;20.878;2023-08-06T12:28:49;98360.66;;;31.89;47.25
50484;BME280;36409;52.168;20.878;2023-08-06T12:31:18;98362.28;;;31.50;47.20
50484;BME280;36409;52.168;20.878;2023-08-06T12:33:49;98359.73;;;31.15;47.34
50484;BME280;36409;52.168;20.878;2023-08-06T12:36:18;98375.59;;;30.89;47.35
50484;BME280;36409;52.168;20.878;2023-08-06T12:38:47;98377.56;;;30.60;47.29
50484;BME280;36409;52.168;20.878;2023-08-06T12:41:16;98393.87;;;30.24;47.11
50484;BME280;36409;52.168;20.878;2023-08-06T12:43:45;98398.70;;;30.00;47.08
50484;BME280;36409;52.168;20.878;2023-08-06T12:46:15;98368.09;;;29.79;47.22
50484;BME280;36409;52.168;20.878;2023-08-06T12:48:43;98376.24;;;29.64;47.36
50484;BME280;36409;52.168;20.878;2023-08-06T12:51:13;98374.08;;;29.53;47.58
50484;BME280;36409;52.168;20.878;2023-08-06T12:53:41;98378.42;;;29.54;47.48
50484;BME280;36409;52.168;20.878;2023-08-06T12:56:10;98384.24;;;29.57;47.67
50484;BME280;36409;52.168;20.878;2023-08-06T12:58:39;98386.48;;;29.54;47.89
50484;BME280;36409;52.168;20.878;2023-08-06T13:01:08;98379.01;;;29.49;47.93
50484;BME280;36409;52.168;20.878;2023-08-06T13:03:37;98382.28;;;29.45;47.95
50484;BME280;36409;52.168;20.878;2023-08-06T13:06:06;98371.91;;;29.41;48.09